sensor_id;sensor_type;location;lat;lon;timestamp;pressure;altitude;pressure_sealevel;temperature;humidity
51496;BME280;37572;52.094;4.870;2024-03-17T00:00:40;102346.69;;;10.67;51.57
51496;BME280;37572;52.094;4.870;2024-03-17T00:03:06;102348.53;;;10.66;51.77
51496;BME280;37572;52.094;4.870;2024-03-17T00:05:34;102354.69;;;10.67;51.66
51496;BME280;37572;52.094;4.870;2024-03-17T00:07:59;102346.94;;;10.64;51.77
51496;BME280;37572;52.094;4.870;2024-03-17T00:10:25;102335.44;;;10.63;51.76
51496;BME280;37572;52.094;4.870;2024-03-17T00:12:50;102342.47;;;10.64;51.82
51496;BME280;37572;52.094;4.870;2024-03-17T00:15:16;102338.09;;;10.63;51.86
51496;BME280;37572;52.094;4.870;2024-03-17T00:17:42;102337.28;;;10.63;51.95
51496;BME280;37572;52.094;4.870;2024-03-17T00:20:07;102327.06;;;10.57;52.30
51496;BME280;37572;52.094;4.870;2024-03-17T00:22:45;102321.38;;;10.50;52.58
51496;BME280;37572;52.094;4.870;2024-03-17T00:25:11;102321.63;;;10.47;52.63
51496;BME280;37572;52.094;4.870;2024-03-17T00:27:36;102325.50;;;10.43;52.79
51496;BME280;37572;52.094;4.870;2024-03-17T00:30:06;102325.50;;;10.43;53.00
51496;BME280;37572;52.094;4.870;2024-03-17T00:32:35;102318.22;;;10.45;52.94
51496;BME280;37572;52.094;4.870;2024-03-17T00:35:00;102321.63;;;10.47;53.09
51496;BME280;37572;52.094;4.870;2024-03-17T00:37:26;102322.34;;;10.49;53.10
51496;BME280;37572;52.094;4.870;2024-03-17T00:39:52;102321.25;;;10.51;53.35
51496;BME280;37572;52.094;4.870;2024-03-17T00:42:17;102332.75;;;10.52;53.42
51496;BME280;37572;52.094;4.870;2024-03-17T00:44:43;102326.34;;;10.54;53.36
51496;BME280;37572;52.094;4.870;2024-03-17T00:47:08;102329.03;;;10.54;53.44
51496;BME280;37572;52.094;4.870;2024-03-17T00:49:33;102328.03;;;10.55;53.38
51496;BME280;37572;52.094;4.870;2024-03-17T00:51:58;102325.38;;;10.55;53.48
51496;BME280;37572;52.094;4.870;2024-03-17T00:54:24;102319.22;;;10.55;53.31
51496;BME280;37572;52.094;4.870;2024-03-17T00:56:50;102321.63;;;10.58;53.51
51496;BME280;37572;52.094;4.870;2024-03-17T00:59:16;102301.28;;;10.57;53.28
51496;BME280;37572;52.094;4.870;2024-03-17T01:01:41;102307.22;;;10.61;53.30
51496;BME280;37572;52.094;4.870;2024-03-17T01:04:09;102297.44;;;10.61;53.29
51496;BME280;37572;52.094;4.870;2024-03-17T01:06:34;102300.94;;;10.62;53.41
51496;BME280;37572;52.094;4.870;2024-03-17T01:08:59;102298.25;;;10.62;53.27
51496;BME280;37572;52.094;4.870;2024-03-17T01:11:25;102303.59;;;10.62;53.24
51496;BME280;37572;52.094;4.870;2024-03-17T01:13:50;102295.59;;;10.62;53.56
51496;BME280;37572;52.094;4.870;2024-03-17T01:16:15;102291.09;;;10.62;53.39
51496;BME280;37572;52.094;4.870;2024-03-17T01:18:41;102295.47;;;10.63;53.56
51496;BME280;37572;52.094;4.870;2024-03-17T01:21:08;102290.28;;;10.62;53.56
51496;BME280;37572;52.094;4.870;2024-03-17T01:23:33;102284.00;;;10.63;53.46
51496;BME280;37572;52.094;4.870;2024-03-17T01:25:58;102275.13;;;10.62;53.52
51496;BME280;37572;52.094;4.870;2024-03-17T01:28:24;102273.22;;;10.64;53.57
51496;BME280;37572;52.094;4.870;2024-03-17T01:30:49;102271.50;;;10.63;53.61
51496;BME280;37572;52.094;4.870;2024-03-17T01:33:14;102272.22;;;10.65;53.61
51496;BME280;37572;52.094;4.870;2024-03-17T01:35:40;102265.81;;;10.68;53.45
51496;BME280;37572;52.094;4.870;2024-03-17T01:38:06;102269.69;;;10.64;53.20
51496;BME280;37572;52.094;4.870;2024-03-17T01:40:31;102258.19;;;10.63;53.30
51496;BME280;37572;52.094;4.870;2024-03-17T01:42:56;102259.03;;;10.64;53.29
51496;BME280;37572;52.094;4.870;2024-03-17T01:45:32;102265.22;;;10.64;53.36
51496;BME280;37572;52.094;4.870;2024-03-17T01:47:59;102265.34;;;10.63;53.67
51496;BME280;37572;52.094;4.870;2024-03-17T01:50:33;102258.91;;;10.65;53.53
51496;BME280;37572;52.094;4.870;2024-03-17T01:53:02;102250.44;;;10.71;53.31
51496;BME280;37572;52.094;4.870;2024-03-17T01:55:29;102254.66;;;10.74;53.41
51496;BME280;37572;52.094;4.870;2024-03-17T01:57:55;102256.84;;;10.80;53.45
51496;BME280;37572;52.094;4.870;2024-03-17T02:00:21;102249.31;;;10.85;53.44
51496;BME280;37572;52.094;4.870;2024-03-17T02:02:47;102245.44;;;10.89;53.35
51496;BME280;37572;52.094;4.870;2024-03-17T02:05:12;102241.44;;;10.95;53.27
51496;BME280;37572;52.094;4.870;2024-03-17T02:07:38;102240.59;;;10.95;53.29
51496;BME280;37572;52.094;4.870;2024-03-17T02:10:04;102244.94;;;10.96;53.21
51496;BME280;37572;52.094;4.870;2024-03-17T02:12:31;102241.44;;;10.95;53.28
51496;BME280;37572;52.094;4.870;2024-03-17T02:14:58;102223.50;;;10.97;53.31
51496;BME280;37572;52.094;4.870;2024-03-17T02:17:23;102234.16;;;10.97;53.41
51496;BME280;37572;52.094;4.870;2024-03-17T02:19:50;102235.25;;;10.95;53.52
51496;BME280;37572;52.094;4.870;2024-03-17T02:22:15;102231.59;;;10.96;53.65
51496;BME280;37572;52.094;4.870;2024-03-17T02:24:42;102229.22;;;10.92;53.58
51496;BME280;37572;52.094;4.870;2024-03-17T02:27:07;102227.63;;;10.90;53.67
51496;BME280;37572;52.094;4.870;2024-03-17T02:29:32;102223.16;;;10.90;53.76
51496;BME280;37572;52.094;4.870;2024-03-17T02:31:58;102219.63;;;10.90;53.91
51496;BME280;37572;52.094;4.870;2024-03-17T02:34:23;102217.81;;;10.90;53.61
51496;BME280;37572;52.094;4.870;2024-03-17T02:36:48;102215.28;;;10.89;53.97
51496;BME280;37572;52.094;4.870;2024-03-17T02:39:14;102211.53;;;10.80;54.26
51496;BME280;37572;52.094;4.870;2024-03-17T02:42:09;102208.28;;;10.77;54.30
51496;BME280;37572;52.094;4.870;2024-03-17T02:44:35;102206.22;;;10.80;54.42
51496;BME280;37572;52.094;4.870;2024-03-17T02:47:02;102216.88;;;10.80;54.46
51496;BME280;37572;52.094;4.870;2024-03-17T02:49:29;102213.00;;;10.84;54.35
51496;BME280;37572;52.094;4.870;2024-03-17T02:52:09;102217.09;;;10.88;54.33
51496;BME280;37572;52.094;4.870;2024-03-17T02:54:36;102210.69;;;10.91;54.33
51496;BME280;37572;52.094;4.870;2024-03-17T02:57:03;102198.19;;;10.91;54.37
51496;BME280;37572;52.094;4.870;2024-03-17T02:59:28;102208.63;;;10.95;54.21
51496;BME280;37572;52.094;4.870;2024-03-17T03:01:54;102201.69;;;10.92;54.53
51496;BME280;37572;52.094;4.870;2024-03-17T03:04:19;102196.50;;;10.90;54.32
51496;BME280;37572;52.094;4.870;2024-03-17T03:06:45;102197.59;;;10.88;54.49
51496;BME280;37572;52.094;4.870;2024-03-17T03:09:10;102192.28;;;10.88;54.59
51496;BME280;37572;52.094;4.870;2024-03-17T03:11:40;102202.06;;;10.87;54.71
51496;BME280;37572;52.094;4.870;2024-03-17T03:14:06;102199.28;;;10.89;54.80
51496;BME280;37572;52.094;4.870;2024-03-17T03:16:32;102203.78;;;10.88;54.76
51496;BME280;37572;52.094;4.870;2024-03-17T03:18:57;102199.03;;;10.92;54.86
51496;BME280;37572;52.094;4.870;2024-03-17T03:21:22;102195.16;;;10.96;54.71
51496;BME280;37572;52.094;4.870;2024-03-17T03:23:48;102196.59;;;11.00;54.63
51496;BME280;37572;52.094;4.870;2024-03-17T03:26:13;102194.78;;;11.01;54.52
51496;BME280;37572;52.094;4.870;2024-03-17T03:28:38;102193.81;;;11.02;54.64
51496;BME280;37572;52.094;4.870;2024-03-17T03:31:04;102189.59;;;10.99;54.71
51496;BME280;37572;52.094;4.870;2024-03-17T03:33:30;102186.53;;;11.04;54.67
51496;BME280;37572;52.094;4.870;2024-03-17T03:35:55;102177.81;;;11.02;54.67
51496;BME280;37572;52.094;4.870;2024-03-17T03:38:21;102174.31;;;11.01;54.70
51496;BME280;37572;52.094;4.870;2024-03-17T03:40:47;102157.31;;;11.02;54.71
51496;BME280;37572;52.094;4.870;2024-03-17T03:43:15;102151.41;;;10.99;54.71
51496;BME280;37572;52.094;4.870;2024-03-17T03:45:41;102144.41;;;10.98;54.79
51496;BME280;37572;52.094;4.870;2024-03-17T03:48:06;102148.03;;;10.97;54.97
51496;BME280;37572;52.094;4.870;2024-03-17T03:50:35;102145.00;;;11.01;54.83
51496;BME280;37572;52.094;4.870;2024-03-17T03:53:00;102141.47;;;11.01;54.81
51496;BME280;37572;52.094;4.870;2024-03-17T03:55:26;102135.03;;;11.03;54.56
51496;BME280;37572;52.094;4.870;2024-03-17T03:57:51;102137.56;;;11.05;54.74
51496;BME280;37572;52.094;4.870;2024-03-17T04:00:18;102137.44;;;11.06;54.63
51496;BME280;37572;52.094;4.870;2024-03-17T04:02:50;102135.50;;;11.08;54.52
51496;BME280;37572;52.094;4.870;2024-03-17T04:05:17;102137.91;;;11.11;54.46
51496;BME280;37572;52.094;4.870;2024-03-17T04:07:42;102133.53;;;11.10;54.47
51496;BME280;37572;52.094;4.870;2024-03-17T04:10:09;102129.91;;;11.11;54.44
51496;BME280;37572;52.094;4.870;2024-03-17T04:12:35;102125.41;;;11.12;54.55
51496;BME280;37572;52.094;4.870;2024-03-17T04:15:00;102122.75;;;11.12;54.50
51496;BME280;37572;52.094;4.870;2024-03-17T04:17:26;102118.66;;;11.08;54.52
51496;BME280;37572;52.094;4.870;2024-03-17T04:19:53;102116.13;;;11.06;54.60
51496;BME280;37572;52.094;4.870;2024-03-17T04:22:19;102120.75;;;11.04;54.78
51496;BME280;37572;52.094;4.870;2024-03-17T04:24:46;102115.28;;;11.06;54.81
51496;BME280;37572;52.094;4.870;2024-03-17T04:27:12;102118.09;;;11.04;54.79
51496;BME280;37572;52.094;4.870;2024-03-17T04:29:38;102127.28;;;11.00;54.86
51496;BME280;37572;52.094;4.870;2024-03-17T04:32:04;102124.16;;;10.95;55.06
51496;BME280;37572;52.094;4.870;2024-03-17T04:34:30;102123.69;;;10.90;55.11
51496;BME280;37572;52.094;4.870;2024-03-17T04:36:56;102122.72;;;10.91;55.11
51496;BME280;37572;52.094;4.870;2024-03-17T04:39:22;102119.31;;;10.89;55.26
51496;BME280;37572;52.094;4.870;2024-03-17T04:41:47;102120.94;;;10.80;55.36
51496;BME280;37572;52.094;4.870;2024-03-17T04:44:13;102114.66;;;10.81;55.20
51496;BME280;37572;52.094;4.870;2024-03-17T04:46:38;102124.06;;;10.85;55.45
51496;BME280;37572;52.094;4.870;2024-03-17T04:49:04;102119.97;;;10.81;55.17
51496;BME280;37572;52.094;4.870;2024-03-17T04:51:29;102106.78;;;10.80;55.42
51496;BME280;37572;52.094;4.870;2024-03-17T04:53:55;102109.19;;;10.83;55.37
51496;BME280;37572;52.094;4.870;2024-03-17T04:56:20;102100.09;;;10.85;55.49
51496;BME280;37572;52.094;4.870;2024-03-17T04:58:46;102109.78;;;10.86;55.30
51496;BME280;37572;52.094;4.870;2024-03-17T05:01:11;102104.81;;;10.82;55.36
51496;BME280;37572;52.094;4.870;2024-03-17T05:03:38;102109.44;;;10.80;55.28
51496;BME280;37572;52.094;4.870;2024-03-17T05:06:04;102114.06;;;10.78;55.59
51496;BME280;37572;52.094;4.870;2024-03-17T05:08:31;102117.56;;;10.78;55.51
51496;BME280;37572;52.094;4.870;2024-03-17T05:11:00;102112.09;;;10.80;55.51
51496;BME280;37572;52.094;4.870;2024-03-17T05:13:26;102109.19;;;10.83;55.38
51496;BME280;37572;52.094;4.870;2024-03-17T05:15:53;102104.94;;;10.80;55.52
51496;BME280;37572;52.094;4.870;2024-03-17T05:18:18;102094.75;;;10.85;55.56
51496;BME280;37572;52.094;4.870;2024-03-17T05:20:45;102096.59;;;10.85;55.28
51496;BME280;37572;52.094;4.870;2024-03-17T05:23:12;102089.09;;;10.79;55.48
51496;BME280;37572;52.094;4.870;2024-03-17T05:25:37;102101.19;;;10.83;55.37
51496;BME280;37572;52.094;4.870;2024-03-17T05:28:03;102104.56;;;10.85;55.20
51496;BME280;37572;52.094;4.870;2024-03-17T05:30:28;102105.53;;;10.84;55.36
51496;BME280;37572;52.094;4.870;2024-03-17T05:32:54;102110.50;;;10.88;55.31
51496;BME280;37572;52.094;4.870;2024-03-17T05:35:19;102101.41;;;10.91;55.25
51496;BME280;37572;52.094;4.870;2024-03-17T05:37:44;102113.50;;;10.95;55.25
51496;BME280;37572;52.094;4.870;2024-03-17T05:40:11;102116.75;;;10.99;55.12
51496;BME280;37572;52.094;4.870;2024-03-17T05:42:41;102114.47;;;10.94;54.99
51496;BME280;37572;52.094;4.870;2024-03-17T05:45:09;102110.13;;;10.93;55.09
51496;BME280;37572;52.094;4.870;2024-03-17T05:47:37;102111.53;;;10.97;54.91
51496;BME280;37572;52.094;4.870;2024-03-17T05:50:02;102116.03;;;10.97;55.03
51496;BME280;37572;52.094;4.870;2024-03-17T05:52:27;102122.47;;;10.94;55.06
51496;BME280;37572;52.094;4.870;2024-03-17T05:54:53;102120.53;;;10.96;54.96
51496;BME280;37572;52.094;4.870;2024-03-17T05:57:18;102113.75;;;10.92;55.23
51496;BME280;37572;52.094;4.870;2024-03-17T05:59:43;102120.53;;;10.96;55.11
51496;BME280;37572;52.094;4.870;2024-03-17T06:02:09;102117.50;;;11.01;55.12
51496;BME280;37572;52.094;4.870;2024-03-17T06:04:35;102118.22;;;11.03;54.87
51496;BME280;37572;52.094;4.870;2024-03-17T06:07:00;102114.94;;;10.99;55.25
51496;BME280;37572;52.094;4.870;2024-03-17T06:09:25;102107.91;;;10.98;55.18
51496;BME280;37572;52.094;4.870;2024-03-17T06:11:51;102110.47;;;11.00;55.11
51496;BME280;37572;52.094;4.870;2024-03-17T06:14:16;102106.69;;;11.02;55.07
51496;BME280;37572;52.094;4.870;2024-03-17T06:16:42;102105.47;;;11.06;55.04
51496;BME280;37572;52.094;4.870;2024-03-17T06:19:09;102116.47;;;11.13;55.14
51496;BME280;37572;52.094;4.870;2024-03-17T06:21:34;102115.75;;;11.11;54.96
51496;BME280;37572;52.094;4.870;2024-03-17T06:23:59;102115.88;;;11.09;55.00
51496;BME280;37572;52.094;4.870;2024-03-17T06:26:25;102114.16;;;11.08;55.04
51496;BME280;37572;52.094;4.870;2024-03-17T06:28:51;102111.50;;;11.08;55.11
51496;BME280;37572;52.094;4.870;2024-03-17T06:31:17;102105.22;;;11.09;55.27
51496;BME280;37572;52.094;4.870;2024-03-17T06:33:42;102110.53;;;11.09;55.30
51496;BME280;37572;52.094;4.870;2024-03-17T06:36:07;102106.19;;;11.08;55.24
51496;BME280;37572;52.094;4.870;2024-03-17T06:38:33;102101.09;;;11.05;55.30
51496;BME280;37572;52.094;4.870;2024-03-17T06:40:59;102097.34;;;11.08;55.40
51496;BME280;37572;52.094;4.870;2024-03-17T06:43:24;102106.19;;;11.08;55.22
51496;BME280;37572;52.094;4.870;2024-03-17T06:46:00;102098.31;;;11.07;55.43
51496;BME280;37572;52.094;4.870;2024-03-17T06:48:26;102099.88;;;11.09;55.35
51496;BME280;37572;52.094;4.870;2024-03-17T06:50:54;102103.97;;;11.14;55.41
51496;BME280;37572;52.094;4.870;2024-03-17T06:53:23;102104.44;;;11.19;55.46
51496;BME280;37572;52.094;4.870;2024-03-17T06:55:57;102106.47;;;11.26;55.31
51496;BME280;37572;52.094;4.870;2024-03-17T06:58:23;102105.63;;;11.26;55.28
51496;BME280;37572;52.094;4.870;2024-03-17T07:00:56;102103.16;;;11.34;55.30
51496;BME280;37572;52.094;4.870;2024-03-17T07:03:28;102105.88;;;11.44;55.27
51496;BME280;37572;52.094;4.870;2024-03-17T07:05:55;102105.94;;;11.54;55.19
51496;BME280;37572;52.094;4.870;2024-03-17T07:08:21;102108.34;;;11.57;55.06
51496;BME280;37572;52.094;4.870;2024-03-17T07:11:04;102092.66;;;11.63;54.94
51496;BME280;37572;52.094;4.870;2024-03-17T07:13:32;102099.09;;;11.61;54.92
51496;BME280;37572;52.094;4.870;2024-03-17T07:15:57;102098.50;;;11.57;54.94
51496;BME280;37572;52.094;4.870;2024-03-17T07:18:25;102104.72;;;11.58;55.22
51496;BME280;37572;52.094;4.870;2024-03-17T07:20:50;102109.03;;;11.59;55.28
51496;BME280;37572;52.094;4.870;2024-03-17T07:23:15;102106.38;;;11.59;55.21
51496;BME280;37572;52.094;4.870;2024-03-17T07:25:41;102100.53;;;11.65;55.30
51496;BME280;37572;52.094;4.870;2024-03-17T07:28:07;102102.94;;;11.68;55.01
51496;BME280;37572;52.094;4.870;2024-03-17T07:30:32;102092.56;;;11.75;55.02
51496;BME280;37572;52.094;4.870;2024-03-17T07:32:58;102087.41;;;11.83;55.09
51496;BME280;37572;52.094;4.870;2024-03-17T07:35:23;102087.03;;;11.88;54.78
51496;BME280;37572;52.094;4.870;2024-03-17T07:37:48;102085.53;;;11.95;54.87
51496;BME280;37572;52.094;4.870;2024-03-17T07:40:13;102090.34;;;12.01;54.72
51496;BME280;37572;52.094;4.870;2024-03-17T07:42:40;102090.53;;;12.09;54.63
51496;BME280;37572;52.094;4.870;2024-03-17T07:45:06;102090.53;;;12.09;54.43
51496;BME280;37572;52.094;4.870;2024-03-17T07:47:31;102102.16;;;12.08;54.60
51496;BME280;37572;52.094;4.870;2024-03-17T07:50:04;102097.78;;;12.07;54.65
51496;BME280;37572;52.094;4.870;2024-03-17T07:52:31;102100.91;;;12.02;54.83
51496;BME280;37572;52.094;4.870;2024-03-17T07:54:56;102104.78;;;11.98;54.71
51496;BME280;37572;52.094;4.870;2024-03-17T07:57:22;102113.50;;;12.00;55.01
51496;BME280;37572;52.094;4.870;2024-03-17T07:59:49;102109.03;;;12.01;55.18
51496;BME280;37572;52.094;4.870;2024-03-17T08:02:16;102107.06;;;12.03;55.21
51496;BME280;37572;52.094;4.870;2024-03-17T08:04:41;102107.78;;;12.05;55.22
51496;BME280;37572;52.094;4.870;2024-03-17T08:07:07;102106.81;;;12.06;55.28
51496;BME280;37572;52.094;4.870;2024-03-17T08:09:32;102106.09;;;12.04;55.16
51496;BME280;37572;52.094;4.870;2024-03-17T08:11:58;102110.31;;;12.07;55.33
51496;BME280;37572;52.094;4.870;2024-03-17T08:14:23;102105.81;;;12.07;55.37
51496;BME280;37572;52.094;4.870;2024-03-17T08:16:48;102100.63;;;12.15;55.47
51496;BME280;37572;52.094;4.870;2024-03-17T08:19:14;102095.59;;;12.22;55.43
51496;BME280;37572;52.094;4.870;2024-03-17T08:21:39;102108.16;;;12.31;55.21
51496;BME280;37572;52.094;4.870;2024-03-17T08:24:04;102101.41;;;12.37;55.42
51496;BME280;37572;52.094;4.870;2024-03-17T08:26:30;102102.41;;;12.36;55.47
51496;BME280;37572;52.094;4.870;2024-03-17T08:28:55;102108.47;;;12.48;55.35
51496;BME280;37572;52.094;4.870;2024-03-17T08:31:22;102113.53;;;12.61;55.29
51496;BME280;37572;52.094;4.870;2024-03-17T08:33:47;102108.50;;;12.67;55.14
51496;BME280;37572;52.094;4.870;2024-03-17T08:36:16;102105.41;;;12.62;55.25
51496;BME280;37572;52.094;4.870;2024-03-17T08:38:42;102101.88;;;12.62;55.01
51496;BME280;37572;52.094;4.870;2024-03-17T08:41:09;102099.91;;;12.64;55.12
51496;BME280;37572;52.094;4.870;2024-03-17T08:43:36;102098.53;;;12.69;55.19
51496;BME280;37572;52.094;4.870;2024-03-17T08:46:07;102093.06;;;12.71;54.86
51496;BME280;37572;52.094;4.870;2024-03-17T08:48:34;102092.19;;;12.80;54.92
51496;BME280;37572;52.094;4.870;2024-03-17T08:51:01;102094.59;;;12.83;54.62
51496;BME280;37572;52.094;4.870;2024-03-17T08:53:29;102094.59;;;12.83;54.90
51496;BME280;37572;52.094;4.870;2024-03-17T08:55:56;102094.88;;;12.80;54.62
51496;BME280;37572;52.094;4.870;2024-03-17T08:58:22;102088.69;;;12.80;54.74
51496;BME280;37572;52.094;4.870;2024-03-17T09:00:47;102092.06;;;12.82;54.70
51496;BME280;37572;52.094;4.870;2024-03-17T09:03:13;102090.22;;;12.82;54.76
51496;BME280;37572;52.094;4.870;2024-03-17T09:05:40;102084.03;;;12.82;54.71
51496;BME280;37572;52.094;4.870;2024-03-17T09:08:06;102078.97;;;12.88;54.98
51496;BME280;37572;52.094;4.870;2024-03-17T09:10:42;102079.97;;;12.87;54.95
51496;BME280;37572;52.094;4.870;2024-03-17T09:13:13;102081.09;;;12.85;54.80
51496;BME280;37572;52.094;4.870;2024-03-17T09:15:39;102071.38;;;12.84;54.87
51496;BME280;37572;52.094;4.870;2024-03-17T09:18:04;102068.97;;;12.90;54.68
51496;BME280;37572;52.094;4.870;2024-03-17T09:20:30;102068.56;;;12.95;54.94
51496;BME280;37572;52.094;4.870;2024-03-17T09:22:56;102073.34;;;13.01;54.91
51496;BME280;37572;52.094;4.870;2024-03-17T09:25:21;102073.22;;;13.12;55.00
51496;BME280;37572;52.094;4.870;2024-03-17T09:27:46;102067.00;;;13.22;54.75
51496;BME280;37572;52.094;4.870;2024-03-17T09:30:12;102065.88;;;13.24;54.52
51496;BME280;37572;52.094;4.870;2024-03-17T09:32:38;102068.56;;;13.24;54.50
51496;BME280;37572;52.094;4.870;2024-03-17T09:35:04;102061.63;;;13.31;54.30
51496;BME280;37572;52.094;4.870;2024-03-17T09:37:30;102066.03;;;13.42;54.42
51496;BME280;37572;52.094;4.870;2024-03-17T09:39:59;102060.22;;;13.47;54.01
51496;BME280;37572;52.094;4.870;2024-03-17T09:42:26;102054.44;;;13.51;53.84
51496;BME280;37572;52.094;4.870;2024-03-17T09:44:53;102065.69;;;13.55;53.79
51496;BME280;37572;52.094;4.870;2024-03-17T09:47:20;102060.03;;;13.58;53.67
51496;BME280;37572;52.094;4.870;2024-03-17T09:49:47;102059.06;;;13.59;54.00
51496;BME280;37572;52.094;4.870;2024-03-17T09:52:19;102064.41;;;13.69;53.59
51496;BME280;37572;52.094;4.870;2024-03-17T09:54:46;102058.84;;;13.80;53.80
51496;BME280;37572;52.094;4.870;2024-03-17T09:57:16;102058.22;;;13.96;53.36
51496;BME280;37572;52.094;4.870;2024-03-17T09:59:41;102060.41;;;14.11;53.27
51496;BME280;37572;52.094;4.870;2024-03-17T10:02:15;102057.72;;;14.11;52.93
51496;BME280;37572;52.094;4.870;2024-03-17T10:04:41;102051.22;;;14.13;52.90
51496;BME280;37572;52.094;4.870;2024-03-17T10:07:06;102047.78;;;14.21;52.76
51496;BME280;37572;52.094;4.870;2024-03-17T10:09:32;102055.53;;;14.24;52.75
51496;BME280;37572;52.094;4.870;2024-03-17T10:11:57;102046.19;;;14.28;52.61
51496;BME280;37572;52.094;4.870;2024-03-17T10:14:23;102048.44;;;14.33;52.56
51496;BME280;37572;52.094;4.870;2024-03-17T10:16:48;102049.94;;;14.35;52.46
51496;BME280;37572;52.094;4.870;2024-03-17T10:19:26;102056.56;;;14.41;52.23
51496;BME280;37572;52.094;4.870;2024-03-17T10:22:00;102050.03;;;14.43;52.24
51496;BME280;37572;52.094;4.870;2024-03-17T10:24:27;102048.38;;;14.42;52.34
51496;BME280;37572;52.094;4.870;2024-03-17T10:26:55;102040.31;;;14.42;52.55
51496;BME280;37572;52.094;4.870;2024-03-17T10:29:22;102047.75;;;14.49;52.58
51496;BME280;37572;52.094;4.870;2024-03-17T10:32:35;102028.81;;;14.50;52.37
51496;BME280;37572;52.094;4.870;2024-03-17T10:34:38;102031.34;;;14.52;52.57
51496;BME280;37572;52.094;4.870;2024-03-17T10:37:17;102033.06;;;14.53;52.55
51496;BME280;37572;52.094;4.870;2024-03-17T10:39:46;102033.22;;;14.51;52.62
51496;BME280;37572;52.094;4.870;2024-03-17T10:42:13;102038.41;;;14.53;52.78
51496;BME280;37572;52.094;4.870;2024-03-17T10:44:42;102033.16;;;14.61;52.83
51496;BME280;37572;52.094;4.870;2024-03-17T10:47:21;102034.06;;;14.70;52.89
51496;BME280;37572;52.094;4.870;2024-03-17T10:49:46;102034.16;;;14.78;52.83
51496;BME280;37572;52.094;4.870;2024-03-17T10:52:18;102034.84;;;14.80;52.60
51496;BME280;37572;52.094;4.870;2024-03-17T10:59:55;102030.56;;;14.69;53.03
51496;BME280;37572;52.094;4.870;2024-03-17T11:02:25;102036.75;;;14.70;53.30
51496;BME280;37572;52.094;4.870;2024-03-17T11:04:55;102030.94;;;14.74;53.19
51496;BME280;37572;52.094;4.870;2024-03-17T11:07:21;102039.22;;;14.81;53.16
51496;BME280;37572;52.094;4.870;2024-03-17T11:09:48;102041.09;;;14.89;53.04
51496;BME280;37572;52.094;4.870;2024-03-17T11:17:53;102030.00;;;14.84;53.40
51496;BME280;37572;52.094;4.870;2024-03-17T11:20:26;102030.22;;;14.90;53.29
51496;BME280;37572;52.094;4.870;2024-03-17T11:22:55;102023.09;;;14.99;53.24
51496;BME280;37572;52.094;4.870;2024-03-17T11:27:52;102015.84;;;15.17;53.26
51496;BME280;37572;52.094;4.870;2024-03-17T11:39:06;102003.84;;;15.56;52.81
51496;BME280;37572;52.094;4.870;2024-03-17T11:46:50;101993.72;;;15.76;52.80
51496;BME280;37572;52.094;4.870;2024-03-17T11:51:50;101992.06;;;15.83;52.86
51496;BME280;37572;52.094;4.870;2024-03-17T11:54:23;101992.41;;;15.88;52.83
51496;BME280;37572;52.094;4.870;2024-03-17T11:56:51;101989.41;;;15.91;52.75
51496;BME280;37572;52.094;4.870;2024-03-17T11:59:18;101984.06;;;16.00;52.90
51496;BME280;37572;52.094;4.870;2024-03-17T12:01:45;101977.38;;;16.04;52.86
51496;BME280;37572;52.094;4.870;2024-03-17T12:04:13;101975.19;;;16.07;52.58
51496;BME280;37572;52.094;4.870;2024-03-17T12:06:39;101982.78;;;16.12;52.61
51496;BME280;37572;52.094;4.870;2024-03-17T12:09:09;101979.06;;;16.13;52.63
51496;BME280;37572;52.094;4.870;2024-03-17T12:11:35;101965.63;;;16.13;52.89
51496;BME280;37572;52.094;4.870;2024-03-17T12:14:12;101961.25;;;16.20;52.86
51496;BME280;37572;52.094;4.870;2024-03-17T12:16:46;101969.34;;;16.28;52.94
51496;BME280;37572;52.094;4.870;2024-03-17T12:19:13;101962.63;;;16.24;52.62
51496;BME280;37572;52.094;4.870;2024-03-17T12:21:41;101955.38;;;16.25;53.23
51496;BME280;37572;52.094;4.870;2024-03-17T12:24:14;101955.72;;;16.22;52.94
51496;BME280;37572;52.094;4.870;2024-03-17T12:26:40;101955.38;;;16.17;52.90
51496;BME280;37572;52.094;4.870;2024-03-17T12:29:21;101949.16;;;16.08;53.21
51496;BME280;37572;52.094;4.870;2024-03-17T12:31:46;101947.13;;;16.02;53.34
51496;BME280;37572;52.094;4.870;2024-03-17T12:34:12;101935.56;;;16.09;53.47
51496;BME280;37572;52.094;4.870;2024-03-17T12:36:39;101940.28;;;16.16;53.27
51496;BME280;37572;52.094;4.870;2024-03-17T12:39:17;101930.38;;;16.16;53.25
51496;BME280;37572;52.094;4.870;2024-03-17T12:41:44;101936.25;;;16.20;53.07
51496;BME280;37572;52.094;4.870;2024-03-17T12:44:21;101936.41;;;16.26;53.26
51496;BME280;37572;52.094;4.870;2024-03-17T12:46:46;101926.00;;;16.40;53.42
51496;BME280;37572;52.094;4.870;2024-03-17T12:49:11;101929.38;;;16.50;53.13
51496;BME280;37572;52.094;4.870;2024-03-17T12:51:37;101926.84;;;16.65;52.87
51496;BME280;37572;52.094;4.870;2024-03-17T12:54:15;101913.56;;;16.72;52.30
51496;BME280;37572;52.094;4.870;2024-03-17T12:56:43;101916.72;;;16.83;52.21
51496;BME280;37572;52.094;4.870;2024-03-17T12:59:42;101923.47;;;16.96;52.21
51496;BME280;37572;52.094;4.870;2024-03-17T13:02:27;101914.34;;;17.05;51.59
51496;BME280;37572;52.094;4.870;2024-03-17T13:05:16;101906.09;;;17.15;51.04
51496;BME280;37572;52.094;4.870;2024-03-17T13:07:43;101899.38;;;17.19;51.26
51496;BME280;37572;52.094;4.870;2024-03-17T13:10:11;101895.44;;;17.30;51.26
51496;BME280;37572;52.094;4.870;2024-03-17T13:12:38;101899.31;;;17.35;50.88
51496;BME280;37572;52.094;4.870;2024-03-17T13:15:04;101902.31;;;17.41;50.95
51496;BME280;37572;52.094;4.870;2024-03-17T13:17:30;101881.28;;;17.36;51.14
51496;BME280;37572;52.094;4.870;2024-03-17T13:19:58;101885.53;;;17.30;50.74